Time;durP1;ratioP1;P1;durP2;ratioP2;P2;SDS_P1;SDS_P2;PMS_P1;PMS_P2;Temp;Humidity;BMP_temperature;BMP_pressure;BME280_temperature;BME280_humidity;BME280_pressure;Samples;Min_cycle;Max_cycle;Signal;HPM_P1;HPM_P2
2022/05/02 00:00:16;;;;;;;6.18;4.50;;;;;;;13.78;100.00;101436.81;4918283;29;20470;-83
2022/05/02 00:03:02;;;;;;;5.60;4.10;;;;;;;14.01;100.00;101434.59;4919580;29;20377;-83
2022/05/02 00:05:48;;;;;;;5.97;4.38;;;;;;;13.73;100.00;101440.41;4919378;29;20467;-84
2022/05/02 00:08:34;;;;;;;5.85;4.38;;;;;;;13.77;100.00;101431.56;4932069;29;20016;-83
2022/05/02 00:11:19;;;;;;;6.78;4.40;;;;;;;13.67;100.00;101438.75;4932923;29;20036;-84
2022/05/02 00:14:05;;;;;;;7.05;4.90;;;;;;;13.61;100.00;101436.25;4921257;29;20036;-83
2022/05/02 00:16:51;;;;;;;6.90;4.68;;;;;;;13.77;100.00;101436.84;4920380;29;20031;-83
2022/05/02 00:19:37;;;;;;;7.10;5.00;;;;;;;13.59;100.00;101435.41;4919665;29;20024;-84
2022/05/02 00:22:22;;;;;;;8.40;5.07;;;;;;;13.60;100.00;101442.44;4920345;29;20339;-83
2022/05/02 00:25:08;;;;;;;9.30;4.88;;;;;;;13.59;100.00;101445.94;4922360;29;20032;-83
2022/05/02 00:27:54;;;;;;;6.70;4.88;;;;;;;13.50;100.00;101446.09;4918857;29;20028;-84
2022/05/02 00:30:41;;;;;;;10.63;5.38;;;;;;;13.23;100.00;101443.94;4919954;29;20457;-83
2022/05/02 00:33:26;;;;;;;8.25;5.10;;;;;;;13.61;100.00;101440.66;4932784;29;20059;-83
2022/05/02 00:36:12;;;;;;;9.20;5.00;;;;;;;13.63;100.00;101436.25;4917556;29;20414;-83
2022/05/02 00:38:59;;;;;;;9.02;5.20;;;;;;;13.15;100.00;101437.09;4931966;29;20028;-83
2022/05/02 00:41:45;;;;;;;11.30;5.60;;;;;;;13.20;100.00;101436.13;4918712;29;20036;-83
2022/05/02 00:44:30;;;;;;;11.93;5.80;;;;;;;13.03;100.00;101437.28;4917955;29;20426;-83
2022/05/02 00:47:18;;;;;;;10.18;5.70;;;;;;;13.04;100.00;101436.38;4917978;29;20028;-83
2022/05/02 00:50:07;;;;;;;7.93;5.68;;;;;;;12.69;100.00;101438.66;4919916;29;20369;-83
2022/05/02 00:52:52;;;;;;;9.82;6.03;;;;;;;12.82;100.00;101435.81;4932798;29;20038;-83
2022/05/02 00:55:38;;;;;;;7.88;5.82;;;;;;;13.05;100.00;101431.09;4918034;29;20036;-83
2022/05/02 00:58:24;;;;;;;7.90;6.15;;;;;;;12.60;100.00;101436.16;4918188;29;20047;-83
2022/05/02 01:01:10;;;;;;;9.60;6.32;;;;;;;12.22;100.00;101434.03;4926909;29;20051;-83
2022/05/02 01:03:56;;;;;;;11.20;6.60;;;;;;;12.49;100.00;101433.69;4921549;29;20346;-83
2022/05/02 01:09:51;;;;;;;15.43;6.78;;;;;;;11.87;100.00;101438.00;4919471;29;20024;-82
2022/05/02 01:12:37;;;;;;;10.65;6.80;;;;;;;12.35;100.00;101425.13;4917041;29;20095;-82
2022/05/02 01:15:23;;;;;;;8.90;6.43;;;;;;;11.95;100.00;101423.00;4919801;29;20036;-83
2022/05/02 01:18:08;;;;;;;11.55;6.18;;;;;;;11.74;100.00;101423.25;4917314;29;20035;-83
2022/05/02 01:20:54;;;;;;;10.00;6.43;;;;;;;11.96;100.00;101416.88;4918581;29;20445;-83
2022/05/02 01:23:42;;;;;;;11.40;5.65;;;;;;;12.14;100.00;101421.91;4931435;29;20369;-82
2022/05/02 01:26:28;;;;;;;9.48;5.97;;;;;;;12.21;100.00;101428.81;4917609;29;20031;-83
2022/05/02 01:29:14;;;;;;;8.85;5.90;;;;;;;12.23;100.00;101417.41;4919765;28;20031;-83
2022/05/02 01:32:06;;;;;;;9.02;5.60;;;;;;;12.12;100.00;101421.94;4918111;29;20036;-83
2022/05/02 01:34:52;;;;;;;11.85;6.00;;;;;;;12.20;100.00;101416.56;4917431;29;20032;-83
2022/05/02 01:37:38;;;;;;;8.55;5.40;;;;;;;12.63;100.00;101418.59;4918194;29;20130;-83
2022/05/02 01:40:23;;;;;;;8.93;5.10;;;;;;;12.56;100.00;101416.06;4916866;29;20087;-82
2022/05/02 01:43:10;;;;;;;7.65;4.72;;;;;;;12.58;100.00;101409.88;4918140;29;20039;-84
2022/05/02 01:45:55;;;;;;;6.55;4.85;;;;;;;12.22;100.00;101415.66;4931219;29;20036;-82
2022/05/02 01:48:41;;;;;;;8.00;4.50;;;;;;;11.77;100.00;101413.59;4917920;29;20028;-84
2022/05/02 01:51:27;;;;;;;8.60;4.97;;;;;;;12.03;100.00;101413.28;4918018;29;20036;-84
2022/05/02 01:54:13;;;;;;;8.02;4.57;;;;;;;12.30;100.00;101410.31;4916949;29;20067;-84
2022/05/02 01:56:58;;;;;;;7.07;4.80;;;;;;;11.99;100.00;101404.59;4917158;29;20177;-83
2022/05/02 01:59:44;;;;;;;9.70;5.00;;;;;;;12.08;100.00;101404.47;4916709;29;20106;-84
2022/05/02 02:02:30;;;;;;;7.80;5.30;;;;;;;12.27;100.00;101400.72;4917604;29;20104;-82
2022/05/02 02:08:22;;;;;;;9.98;6.60;;;;;;;11.92;100.00;101396.78;4918516;29;20031;-83
2022/05/02 02:11:10;;;;;;;11.05;6.28;;;;;;;12.13;100.00;101391.28;4921416;29;20055;-83
2022/05/02 02:13:56;;;;;;;12.48;6.80;;;;;;;11.98;100.00;101391.47;4922162;29;20108;-83
2022/05/02 02:16:42;;;;;;;11.02;6.32;;;;;;;12.13;100.00;101396.53;4920896;29;20039;-84
2022/05/02 02:19:27;;;;;;;11.50;6.32;;;;;;;12.10;100.00;101397.41;4922259;29;20028;-83
2022/05/02 02:22:16;;;;;;;10.27;5.80;;;;;;;11.83;100.00;101399.53;4921413;29;20183;-84
2022/05/02 02:25:03;;;;;;;11.10;5.90;;;;;;;12.10;100.00;101399.19;4923251;29;20358;-83
2022/05/02 02:27:49;;;;;;;11.43;5.43;;;;;;;12.22;100.00;101397.25;4921298;29;20027;-83
2022/05/02 02:30:35;;;;;;;8.50;5.47;;;;;;;11.86;100.00;101396.88;4922197;29;20051;-82
2022/05/02 02:33:21;;;;;;;10.32;5.60;;;;;;;11.97;100.00;101392.38;4921106;29;20031;-84
2022/05/02 02:36:07;;;;;;;11.10;5.85;;;;;;;11.75;100.00;101394.38;4920206;29;20111;-82
2022/05/02 02:38:53;;;;;;;9.77;5.80;;;;;;;11.85;100.00;101396.00;4920336;29;20095;-81
2022/05/02 02:41:39;;;;;;;11.70;5.95;;;;;;;12.03;100.00;101389.66;4920879;29;20028;-82
2022/05/02 02:44:24;;;;;;;13.63;5.80;;;;;;;11.41;100.00;101398.19;4934483;29;20039;-83
2022/05/02 02:47:10;;;;;;;8.77;5.43;;;;;;;11.00;100.00;101396.84;4920219;29;20044;-83
2022/05/02 02:49:56;;;;;;;14.40;7.45;;;;;;;10.64;100.00;101394.53;4921753;29;20079;-83
2022/05/02 02:52:41;;;;;;;17.77;9.35;;;;;;;10.64;100.00;101395.38;4920894;29;20090;-82
2022/05/02 02:55:28;;;;;;;14.07;9.15;;;;;;;10.50;100.00;101399.84;4920895;29;20028;-82
2022/05/02 02:58:13;;;;;;;18.95;9.98;;;;;;;10.67;100.00;101394.47;4921106;29;20073;-83
2022/05/02 03:00:59;;;;;;;16.70;10.50;;;;;;;10.63;100.00;101398.00;4920113;29;20028;-82
2022/05/02 03:03:45;;;;;;;13.88;10.05;;;;;;;10.67;100.00;101400.59;4921245;29;20118;-83
2022/05/02 03:06:32;;;;;;;14.05;8.63;;;;;;;10.59;100.00;101399.78;4921526;29;20032;-83
2022/05/02 03:09:18;;;;;;;13.48;8.63;;;;;;;10.64;100.00;101402.38;4920118;29;20051;-83
2022/05/02 03:12:05;;;;;;;14.60;7.57;;;;;;;10.17;100.00;101401.78;4920172;29;20034;-83
2022/05/02 03:14:50;;;;;;;11.02;6.88;;;;;;;10.29;100.00;101401.72;4920015;29;20036;-82
2022/05/02 03:17:36;;;;;;;11.32;6.43;;;;;;;10.62;100.00;101404.13;4920831;29;20091;-83
2022/05/02 03:20:22;;;;;;;10.90;6.38;;;;;;;10.26;100.00;101397.38;4921466;29;20063;-82
2022/05/02 03:23:08;;;;;;;11.25;6.57;;;;;;;10.16;100.00;101403.53;4920424;29;20036;-82
2022/05/02 03:25:54;;;;;;;12.18;7.70;;;;;;;10.22;100.00;101405.25;4920880;29;20024;-82
2022/05/02 03:28:40;;;;;;;11.77;7.65;;;;;;;10.13;100.00;101398.31;4929815;29;20020;-82
2022/05/02 03:31:26;;;;;;;14.18;8.80;;;;;;;10.34;100.00;101399.94;4931493;29;20028;-82
2022/05/02 03:34:12;;;;;;;19.38;8.70;;;;;;;10.62;100.00;101401.50;4921031;29;20032;-82
2022/05/02 03:36:58;;;;;;;21.60;10.75;;;;;;;10.42;100.00;101398.16;4921193;29;20032;-81
2022/05/02 03:39:44;;;;;;;13.07;8.23;;;;;;;10.22;100.00;101400.88;4921113;29;20123;-80
2022/05/02 03:42:29;;;;;;;16.83;9.13;;;;;;;9.98;100.00;101400.97;4920103;29;20121;-82
2022/05/02 03:45:15;;;;;;;11.65;7.10;;;;;;;10.14;100.00;101386.97;4927817;29;20450;-81
2022/05/02 03:48:01;;;;;;;18.00;9.05;;;;;;;10.30;100.00;101387.75;4923816;29;20035;-81
2022/05/02 03:50:49;;;;;;;19.75;9.85;;;;;;;10.26;100.00;101386.00;4929668;29;20024;-81
2022/05/02 03:53:35;;;;;;;14.15;7.40;;;;;;;10.11;100.00;101389.59;4926613;29;20083;-80
2022/05/02 03:56:21;;;;;;;9.43;6.50;;;;;;;10.22;100.00;101386.91;4925498;29;20056;-80
2022/05/02 03:59:07;;;;;;;9.18;6.20;;;;;;;10.36;100.00;101385.09;4923911;29;20171;-82
2022/05/02 04:01:52;;;;;;;9.88;6.10;;;;;;;10.24;100.00;101374.69;4920176;29;20032;-81
2022/05/02 04:04:38;;;;;;;13.80;6.25;;;;;;;10.51;100.00;101379.75;4937952;29;20035;-81
2022/05/02 04:07:24;;;;;;;10.45;6.55;;;;;;;10.23;100.00;101376.44;4929547;29;20458;-81
2022/05/02 04:10:10;;;;;;;11.88;6.32;;;;;;;10.11;100.00;101379.13;4938335;29;20069;-82
2022/05/02 04:12:56;;;;;;;10.27;5.90;;;;;;;10.21;100.00;101372.09;4925495;29;20417;-82
2022/05/02 04:15:42;;;;;;;11.50;6.85;;;;;;;10.31;100.00;101371.13;4936759;29;20036;-81
2022/05/02 04:18:28;;;;;;;11.50;7.28;;;;;;;10.31;100.00;101371.13;4921556;29;20035;-82
2022/05/02 04:21:14;;;;;;;13.82;6.30;;;;;;;10.51;100.00;101372.75;4921259;29;20071;-82
2022/05/02 04:24:00;;;;;;;18.50;7.75;;;;;;;10.32;100.00;101373.75;4919106;29;20425;-82
2022/05/02 04:26:45;;;;;;;16.73;7.43;;;;;;;10.45;100.00;101372.78;4920649;29;20043;-83
2022/05/02 04:29:31;;;;;;;13.95;7.00;;;;;;;10.47;100.00;101376.28;4920061;29;20514;-82
2022/05/02 04:32:17;;;;;;;12.25;6.88;;;;;;;10.73;100.00;101384.81;4920471;29;20353;-81
2022/05/02 04:35:04;;;;;;;14.15;6.50;;;;;;;10.83;100.00;101377.75;4933784;29;20091;-83
2022/05/02 04:37:50;;;;;;;11.48;5.95;;;;;;;10.81;100.00;101382.16;4919361;29;20115;-83
2022/05/02 04:40:36;;;;;;;8.32;5.85;;;;;;;10.61;100.00;101378.81;4919845;29;20082;-82
2022/05/02 04:43:21;;;;;;;10.68;5.75;;;;;;;10.72;100.00;101380.47;4919261;29;20492;-83
2022/05/02 04:46:08;;;;;;;10.90;5.68;;;;;;;10.91;100.00;101387.31;4918613;29;20028;-83
2022/05/02 04:48:54;;;;;;;12.73;6.45;;;;;;;11.08;100.00;101385.41;4923275;29;20028;-82
2022/05/02 04:51:39;;;;;;;13.02;6.45;;;;;;;11.15;100.00;101394.09;4923925;29;20044;-82
2022/05/02 04:54:25;;;;;;;12.55;7.35;;;;;;;11.28;100.00;101388.72;4933427;29;20036;-82
2022/05/02 04:57:11;;;;;;;11.60;6.07;;;;;;;11.30;100.00;101401.81;4920374;29;20056;-82
2022/05/02 04:59:57;;;;;;;12.05;6.88;;;;;;;11.48;100.00;101392.00;4932077;29;20039;-81
2022/05/02 05:02:43;;;;;;;12.35;6.63;;;;;;;11.50;100.00;101390.25;4923950;29;20043;-82
2022/05/02 05:05:29;;;;;;;10.73;6.32;;;;;;;11.37;100.00;101386.00;4920893;29;20044;-81
2022/05/02 05:08:15;;;;;;;12.52;6.82;;;;;;;11.54;100.00;101388.44;4919291;29;20032;-84
2022/05/02 05:11:44;;;;;;;11.68;7.32;;;;;;;11.81;100.00;101381.16;4934525;29;20032;-81
2022/05/02 05:18:39;;;;;;;9.02;6.82;;;;;;;11.90;100.00;101383.66;4921821;29;20068;-82
2022/05/02 05:21:32;;;;;;;9.73;6.22;;;;;;;11.91;100.00;101385.44;4920312;29;20099;-82
2022/05/02 05:24:56;;;;;;;10.52;6.15;;;;;;;12.09;100.00;101385.19;4933730;29;20052;-83
2022/05/02 05:27:47;;;;;;;9.90;5.95;;;;;;;12.13;100.00;101384.25;4922754;29;20028;-81
2022/05/02 05:30:42;;;;;;;8.50;5.68;;;;;;;12.34;100.00;101386.59;4935967;29;20122;-82
2022/05/02 05:33:54;;;;;;;8.45;5.30;;;;;;;12.56;100.00;101380.13;4921299;29;20031;-81
2022/05/02 05:37:32;;;;;;;10.40;5.20;;;;;;;12.56;100.00;101374.00;4940377;29;20064;-82
2022/05/02 05:40:37;;;;;;;7.32;4.90;;;;;;;12.63;100.00;101383.53;4914765;29;20024;-83
2022/05/02 05:43:44;;;;;;;11.90;4.78;;;;;;;12.91;100.00;101379.59;4924785;29;20027;-81
2022/05/02 05:47:11;;;;;;;9.55;4.90;;;;;;;13.01;100.00;101379.44;4940900;29;20031;-82
2022/05/02 05:50:09;;;;;;;11.52;5.13;;;;;;;13.15;100.00;101384.47;4929894;29;20039;-82
2022/05/02 05:53:30;;;;;;;9.65;5.10;;;;;;;13.06;100.00;101385.47;4919452;29;20075;-81
2022/05/02 05:56:39;;;;;;;7.57;5.18;;;;;;;13.37;100.00;101380.53;4915981;29;20355;-81
2022/05/02 05:59:41;;;;;;;8.68;4.97;;;;;;;13.24;100.00;101381.66;4919368;29;20127;-81
2022/05/02 06:02:51;;;;;;;10.00;5.45;;;;;;;13.52;100.00;101391.69;4924675;29;20119;-82
2022/05/02 06:05:44;;;;;;;10.10;5.30;;;;;;;13.49;100.00;101393.47;4932666;29;20102;-82
2022/05/02 06:08:33;;;;;;;8.80;5.65;;;;;;;13.24;100.00;101390.44;4918772;29;20032;-82
2022/05/02 06:11:25;;;;;;;9.75;5.43;;;;;;;13.44;100.00;101392.72;4917390;29;20062;-82
2022/05/02 06:14:13;;;;;;;7.53;4.82;;;;;;;13.77;100.00;101387.66;4930672;29;20151;-82
2022/05/02 06:20:05;;;;;;;12.25;5.78;;;;;;;14.10;100.00;101383.47;4918418;29;20438;-81
2022/05/02 06:22:51;;;;;;;11.65;4.93;;;;;;;14.42;100.00;101387.19;4918293;29;20032;-82
2022/05/02 06:25:38;;;;;;;9.73;5.05;;;;;;;14.34;100.00;101386.47;4918111;29;20453;-81
2022/05/02 06:28:31;;;;;;;11.60;5.25;;;;;;;14.79;100.00;101387.16;4930913;29;20031;-82
2022/05/02 06:31:23;;;;;;;11.63;5.55;;;;;;;14.93;100.00;101386.84;4918242;29;20362;-82
2022/05/02 06:34:11;;;;;;;10.18;4.80;;;;;;;15.17;100.00;101387.09;4918922;29;20099;-82
2022/05/02 06:37:40;;;;;;;9.77;5.38;;;;;;;15.27;100.00;101390.38;4917037;29;20039;-82
2022/05/02 06:40:51;;;;;;;9.98;5.22;;;;;;;15.19;100.00;101384.44;4903922;29;20036;-83
2022/05/02 06:43:58;;;;;;;11.55;5.32;;;;;;;15.14;100.00;101384.53;4917009;29;20465;-81
2022/05/02 06:46:50;;;;;;;10.00;5.15;;;;;;;15.07;100.00;101380.31;4916602;29;20042;-83
2022/05/02 06:49:39;;;;;;;12.55;5.55;;;;;;;15.36;100.00;101372.56;4930833;29;20024;-83
2022/05/02 06:52:32;;;;;;;9.88;5.15;;;;;;;15.41;100.00;101383.88;4917723;29;20079;-83
2022/05/02 06:55:33;;;;;;;8.00;4.82;;;;;;;15.60;100.00;101392.16;4920399;29;20098;-82
2022/05/02 06:58:38;;;;;;;9.77;4.95;;;;;;;15.55;100.00;101389.63;4920790;29;20052;-82
2022/05/02 07:01:46;;;;;;;7.65;5.63;;;;;;;16.04;100.00;101399.72;4922662;29;20068;-83
2022/05/02 07:04:45;;;;;;;8.25;5.22;;;;;;;15.98;100.00;101394.59;4920059;29;20105;-83
2022/05/02 07:07:58;;;;;;;11.07;5.60;;;;;;;16.19;100.00;101396.63;4933529;29;20378;-83
2022/05/02 07:10:50;;;;;;;10.57;5.65;;;;;;;16.37;100.00;101390.78;4934130;29;20331;-83
2022/05/02 07:13:52;;;;;;;8.98;5.70;;;;;;;16.25;100.00;101392.00;4921871;29;20046;-83
2022/05/02 07:16:47;;;;;;;10.48;4.78;;;;;;;16.51;95.11;101386.81;4920592;29;20158;-82
2022/05/02 07:19:57;;;;;;;10.40;4.90;;;;;;;16.87;88.52;101392.72;4922407;29;20036;-82
2022/05/02 07:23:01;;;;;;;7.97;4.88;;;;;;;17.33;88.02;101388.47;4920266;29;20043;-82
2022/05/02 07:26:08;;;;;;;7.75;4.65;;;;;;;17.32;86.92;101396.50;4919588;29;20027;-83
2022/05/02 07:28:59;;;;;;;7.50;4.80;;;;;;;17.08;86.71;101394.69;4919747;29;20020;-83
2022/05/02 07:31:46;;;;;;;6.47;4.30;;;;;;;17.15;85.12;101390.88;4932805;29;20075;-82
2022/05/02 07:34:33;;;;;;;7.28;4.50;;;;;;;17.37;84.09;101397.22;4919881;29;20036;-83
2022/05/02 07:37:23;;;;;;;7.28;4.70;;;;;;;17.90;81.27;101398.84;4920811;29;20057;-83
2022/05/02 07:40:14;;;;;;;6.50;4.45;;;;;;;17.45;87.53;101397.84;4920232;29;20032;-83
2022/05/02 07:43:02;;;;;;;8.52;4.70;;;;;;;18.02;83.81;101391.31;4920893;29;20431;-84
2022/05/02 07:45:48;;;;;;;10.48;4.30;;;;;;;17.85;78.70;101391.03;4918592;29;20032;-83
2022/05/02 07:48:36;;;;;;;5.93;4.00;;;;;;;18.21;78.56;101392.34;4919956;29;20039;-83
2022/05/02 07:51:23;;;;;;;8.40;3.78;;;;;;;17.87;76.99;101385.69;4919244;29;20443;-83
2022/05/02 07:54:37;;;;;;;8.80;3.88;;;;;;;18.20;75.79;101390.59;4918303;29;20032;-84
2022/05/02 07:57:24;;;;;;;7.00;4.00;;;;;;;18.42;75.08;101393.34;4920083;29;20056;-83
2022/05/02 08:00:12;;;;;;;7.20;3.90;;;;;;;18.35;75.70;101381.22;4919420;29;20070;-82
2022/05/02 08:02:58;;;;;;;6.88;3.83;;;;;;;18.88;73.04;101379.94;4919608;29;20043;-83
2022/05/02 08:05:49;;;;;;;9.80;3.50;;;;;;;18.91;69.71;101369.22;4920890;29;20038;-83
2022/05/02 08:08:46;;;;;;;8.35;3.20;;;;;;;19.38;69.45;101360.16;4920046;29;20115;-82
2022/05/02 08:12:10;;;;;;;9.02;3.70;;;;;;;19.58;65.76;101365.44;4918802;29;20061;-84
2022/05/02 08:15:11;;;;;;;5.35;3.53;;;;;;;19.34;65.01;101365.66;4919631;29;20024;-83
2022/05/02 08:18:38;;;;;;;6.13;3.20;;;;;;;20.39;60.97;101369.69;4920864;29;20024;-82
2022/05/02 08:27:15;;;;;;;5.28;3.35;;;;;;;20.27;57.47;101362.28;4905111;29;20039;-84
2022/05/02 08:28:57;;;;;;;7.80;3.35;;;;;;;20.82;52.25;101352.50;4924415;29;20076;-84
2022/05/02 08:32:22;;;;;;;6.88;3.40;;;;;;;21.09;49.61;101348.50;4921867;29;20095;-84
2022/05/02 08:35:16;;;;;;;6.20;3.63;;;;;;;21.19;47.32;101350.59;4905870;29;20162;-85
2022/05/02 08:38:31;;;;;;;5.82;3.60;;;;;;;21.31;46.12;101339.31;4919619;29;20056;-83
2022/05/02 08:41:29;;;;;;;8.13;3.50;;;;;;;21.12;47.44;101325.19;4918246;29;20125;-83
2022/05/02 08:44:32;;;;;;;9.23;3.50;;;;;;;20.92;47.16;101328.00;4919238;29;20123;-84
2022/05/02 08:47:51;;;;;;;6.35;3.25;;;;;;;21.08;46.85;101336.97;4917910;29;20028;-85
2022/05/02 08:50:46;;;;;;;8.35;3.22;;;;;;;20.87;46.70;101334.47;4919499;29;20058;-83
2022/05/02 08:53:51;;;;;;;7.70;3.30;;;;;;;21.19;45.60;101323.06;4930915;29;20032;-83
2022/05/02 08:56:43;;;;;;;6.65;3.20;;;;;;;21.18;45.58;101319.53;4918837;29;20131;-82
2022/05/02 08:59:47;;;;;;;10.80;3.03;;;;;;;21.88;45.20;101319.38;4932246;29;20414;-82
2022/05/02 09:02:50;;;;;;;5.95;4.18;;;;;;;21.92;43.33;101316.47;4917613;29;20064;-83
2022/05/02 09:05:44;;;;;;;32.90;10.77;;;;;;;22.07;43.71;101301.41;4918113;29;20039;-82
2022/05/02 09:08:50;;;;;;;8.23;4.10;;;;;;;21.50;43.62;101293.88;4919261;29;20032;-82
2022/05/02 09:12:11;;;;;;;25.15;10.88;;;;;;;21.79;43.56;101288.72;4918360;29;20457;-81
2022/05/02 09:15:26;;;;;;;16.65;7.22;;;;;;;21.85;43.01;101282.19;4919293;29;20032;-82
2022/05/02 09:18:43;;;;;;;26.98;12.70;;;;;;;20.93;44.10;101279.09;4917106;29;20036;-84
2022/05/02 09:21:38;;;;;;;17.92;10.25;;;;;;;20.38;45.40;101277.47;4919689;29;20043;-82
2022/05/02 09:24:52;;;;;;;6.85;4.05;;;;;;;21.36;44.54;101283.06;4919187;29;20024;-82
2022/05/02 09:28:00;;;;;;;7.47;4.35;;;;;;;20.79;44.33;101257.63;4918518;29;20465;-84
2022/05/02 09:31:14;;;;;;;14.57;3.60;;;;;;;21.03;44.35;101259.06;4930923;29;20437;-84
2022/05/02 09:34:33;;;;;;;7.32;3.83;;;;;;;21.17;44.22;101256.53;4919001;29;20046;-82
2022/05/02 09:37:27;;;;;;;7.43;3.03;;;;;;;20.90;45.49;101257.06;4919672;29;20113;-82
2022/05/02 09:40:15;;;;;;;9.10;4.28;;;;;;;20.81;45.66;101245.06;4924192;29;20060;-82
2022/05/02 09:49:33;;;;;;;8.13;4.47;;;;;;;20.99;45.63;101253.97;4920326;29;20032;-83
2022/05/02 09:50:21;;;;;;;5.07;3.05;;;;;;;20.66;46.02;101242.34;4921215;29;20114;-82
2022/05/02 09:53:46;;;;;;;4.65;3.08;;;;;;;21.20;46.10;101248.38;4921529;29;20028;-83
2022/05/02 09:56:38;;;;;;;5.70;3.15;;;;;;;21.17;45.71;101242.31;4920348;29;20094;-83
2022/05/02 09:59:28;;;;;;;6.07;3.50;;;;;;;21.46;45.84;101236.31;4919977;29;20024;-83
2022/05/02 10:02:21;;;;;;;5.13;3.40;;;;;;;20.90;46.31;101233.09;4920666;29;20036;-83
2022/05/02 10:05:07;;;;;;;3.17;2.80;;;;;;;21.30;46.39;101228.28;4922631;29;20453;-83
2022/05/02 10:08:22;;;;;;;7.53;3.30;;;;;;;21.22;46.33;101225.16;4917433;29;20130;-83
2022/05/02 10:11:20;;;;;;;5.80;3.00;;;;;;;20.73;46.21;101217.13;4917809;29;20040;-84
2022/05/02 10:14:37;;;;;;;3.92;3.10;;;;;;;20.78;46.91;101209.75;4919135;29;20119;-83
2022/05/02 10:17:40;;;;;;;7.13;3.25;;;;;;;21.26;46.72;101202.72;4923869;29;20039;-83
2022/05/02 10:20:41;;;;;;;7.95;3.22;;;;;;;21.16;45.60;101201.50;4918882;29;20032;-83
2022/05/02 10:23:39;;;;;;;13.02;3.15;;;;;;;20.76;45.59;101214.28;4917890;29;20075;-83
2022/05/02 10:26:40;;;;;;;5.40;2.70;;;;;;;20.31;45.70;101205.97;4919832;29;20035;-83
2022/05/02 10:29:48;;;;;;;5.65;3.08;;;;;;;21.19;45.27;101200.47;4931581;29;20040;-84
2022/05/02 10:32:56;;;;;;;4.45;2.95;;;;;;;21.35;44.94;101190.72;4921166;29;20028;-83
2022/05/02 10:35:46;;;;;;;4.10;3.03;;;;;;;20.85;45.42;101195.19;4922393;29;20067;-83
2022/05/02 10:38:35;;;;;;;4.00;2.70;;;;;;;20.48;46.61;101190.00;4921529;29;20039;-82
2022/05/02 10:41:44;;;;;;;5.70;3.20;;;;;;;21.24;45.06;101191.28;4933579;29;20035;-82
2022/05/02 10:44:45;;;;;;;4.28;2.55;;;;;;;21.17;44.52;101191.69;4922382;29;20040;-83
2022/05/02 10:47:41;;;;;;;3.72;2.70;;;;;;;20.86;44.20;101192.41;4920799;29;20028;-84
2022/05/02 10:50:31;;;;;;;5.82;2.80;;;;;;;20.96;43.75;101185.72;4922844;29;20115;-82
2022/05/02 10:53:40;;;;;;;6.63;2.83;;;;;;;21.71;43.90;101186.06;4920661;29;20473;-82
2022/05/02 10:56:35;;;;;;;6.38;3.10;;;;;;;21.72;43.24;101188.66;4934502;29;20060;-83
2022/05/02 10:59:23;;;;;;;4.32;2.38;;;;;;;21.21;40.63;101190.56;4919264;29;20496;-84
2022/05/02 11:02:49;;;;;;;3.60;2.20;;;;;;;21.38;40.13;101170.06;4920729;29;20115;-83
2022/05/02 11:06:03;;;;;;;3.42;2.42;;;;;;;21.04;42.74;101169.31;4920808;29;20469;-83
2022/05/02 11:08:59;;;;;;;4.90;2.60;;;;;;;21.37;42.40;101173.69;4921877;29;20055;-83
2022/05/02 11:11:48;;;;;;;3.30;2.50;;;;;;;21.66;42.08;101172.94;4919802;29;20115;-83
2022/05/02 11:15:04;;;;;;;4.75;2.60;;;;;;;21.59;42.52;101166.25;4921140;29;20034;-82
2022/05/02 11:20:41;;;;;;;8.05;2.70;;;;;;;21.60;42.44;101169.75;4920710;29;20068;-82
2022/05/02 11:21:40;;;;;;;4.60;2.85;;;;;;;21.55;41.22;101161.16;4920666;29;20123;-84
2022/05/02 11:25:02;;;;;;;6.10;2.80;;;;;;;22.85;40.00;101150.78;4921256;29;20036;-83
2022/05/02 11:28:15;;;;;;;2.72;2.10;;;;;;;23.17;36.75;101149.66;4920124;29;20044;-83
2022/05/02 11:31:21;;;;;;;4.22;2.40;;;;;;;21.80;40.83;101154.41;4921114;29;20036;-83
2022/05/02 11:34:31;;;;;;;4.00;2.60;;;;;;;21.47;41.22;101155.38;4922264;29;20385;-84
2022/05/02 11:37:46;;;;;;;3.85;2.40;;;;;;;21.01;39.84;101158.84;4919792;29;20469;-83
2022/05/02 11:40:42;;;;;;;3.10;2.20;;;;;;;21.24;40.71;101143.31;4919593;29;20028;-83
2022/05/02 11:43:37;;;;;;;3.97;2.10;;;;;;;21.45;40.83;101152.81;4919362;29;20055;-83
2022/05/02 11:46:24;;;;;;;6.72;2.45;;;;;;;21.74;41.27;101144.06;4933191;29;20020;-85
2022/05/02 11:49:40;;;;;;;3.53;2.38;;;;;;;21.80;40.51;101132.19;4921731;29;20028;-83
2022/05/02 11:52:31;;;;;;;3.38;2.40;;;;;;;21.75;39.78;101129.81;4920465;29;20028;-84
2022/05/02 11:55:28;;;;;;;2.88;2.10;;;;;;;22.61;38.03;101120.22;4922062;29;20067;-83
2022/05/02 11:58:25;;;;;;;4.60;2.40;;;;;;;23.35;39.08;101127.13;4923146;29;20095;-83
2022/05/02 12:01:25;;;;;;;4.72;2.60;;;;;;;22.19;40.91;101120.06;4922871;29;20100;-83
2022/05/02 12:04:17;;;;;;;3.92;2.50;;;;;;;21.47;41.91;101108.25;4921152;29;20039;-83
2022/05/02 12:07:08;;;;;;;5.82;2.70;;;;;;;20.99;42.82;101115.41;4922863;29;20480;-82
2022/05/02 12:10:06;;;;;;;4.30;2.40;;;;;;;21.40;42.88;101109.53;4921785;29;20063;-83
2022/05/02 12:12:53;;;;;;;7.68;2.78;;;;;;;20.87;42.78;101113.38;4919882;29;20038;-83
2022/05/02 12:15:57;;;;;;;4.07;2.30;;;;;;;21.21;42.55;101097.28;4920325;29;20032;-83
2022/05/02 12:18:47;;;;;;;7.13;2.75;;;;;;;21.66;41.98;101106.25;4919422;29;20025;-83
2022/05/02 12:21:45;;;;;;;5.80;2.78;;;;;;;21.79;42.19;101093.13;4921777;29;20394;-82
2022/05/02 12:24:34;;;;;;;7.32;2.80;;;;;;;21.84;42.21;101089.25;4921260;28;20095;-83
2022/05/02 12:27:26;;;;;;;3.58;2.63;;;;;;;21.86;42.17;101076.66;4918986;29;20087;-81
2022/05/02 12:30:12;;;;;;;5.90;3.03;;;;;;;22.02;42.39;101082.00;4919517;29;20056;-82
2022/05/02 12:33:01;;;;;;;4.82;2.70;;;;;;;22.52;41.71;101077.19;4919804;29;20038;-83
2022/05/02 12:35:47;;;;;;;4.05;2.55;;;;;;;21.55;41.40;101076.69;4933005;29;20107;-83
2022/05/02 12:38:35;;;;;;;4.38;3.03;;;;;;;21.88;40.89;101066.78;4919381;29;20036;-83
2022/05/02 12:41:24;;;;;;;4.93;2.88;;;;;;;22.36;40.79;101069.22;4919504;29;20036;-82
2022/05/02 12:44:13;;;;;;;3.60;2.60;;;;;;;22.51;40.49;101057.59;4920011;29;20078;-83
2022/05/02 12:47:06;;;;;;;5.10;2.63;;;;;;;22.80;40.33;101051.34;4919883;29;20402;-83
2022/05/02 12:50:00;;;;;;;2.95;2.67;;;;;;;22.80;40.51;101058.50;4918363;29;20028;-82
2022/05/02 12:52:55;;;;;;;4.70;2.63;;;;;;;22.32;41.56;101046.31;4918277;29;20036;-84
2022/05/02 12:55:41;;;;;;;5.30;2.53;;;;;;;22.11;42.03;101050.25;4919398;29;20052;-84
2022/05/02 13:01:42;;;;;;;5.28;2.58;;;;;;;21.97;41.81;101047.56;4920371;29;20108;-83
2022/05/02 13:04:29;;;;;;;4.97;2.83;;;;;;;21.86;41.81;101049.97;4919570;29;20031;-83
2022/05/02 13:07:16;;;;;;;4.63;2.85;;;;;;;21.71;42.49;101045.56;4919114;29;20032;-85
2022/05/02 13:10:04;;;;;;;4.35;3.00;;;;;;;21.72;42.82;101041.06;4918291;29;20035;-84
2022/05/02 13:12:57;;;;;;;4.07;3.00;;;;;;;21.68;42.63;101036.81;4918248;29;20028;-84
2022/05/02 13:15:48;;;;;;;3.63;3.13;;;;;;;21.55;43.06;101026.03;4921553;29;20047;-84
2022/05/02 13:18:45;;;;;;;7.47;2.92;;;;;;;22.04;42.03;101024.91;4917235;29;20024;-83
2022/05/02 13:21:32;;;;;;;4.88;2.80;;;;;;;21.75;42.91;101022.22;4918983;29;20032;-83
2022/05/02 13:24:20;;;;;;;6.65;2.55;;;;;;;21.82;43.34;101013.75;4920421;29;20028;-84
2022/05/02 13:27:32;;;;;;;3.40;2.88;;;;;;;21.52;44.66;101025.31;4932501;29;20111;-84
2022/05/02 13:30:21;;;;;;;5.65;2.92;;;;;;;21.52;44.41;101020.00;4918409;29;20028;-82
2022/05/02 13:33:19;;;;;;;10.07;3.08;;;;;;;21.70;43.41;101022.47;4919185;29;20028;-84
2022/05/02 13:36:07;;;;;;;5.32;3.28;;;;;;;21.13;43.96;101020.44;4919002;29;20028;-84
2022/05/02 13:39:03;;;;;;;5.03;3.53;;;;;;;21.69;44.56;101014.53;4918813;29;20449;-83
2022/05/02 13:42:02;;;;;;;8.05;3.42;;;;;;;21.64;44.65;101019.28;4919748;29;20468;-83
2022/05/02 13:44:57;;;;;;;11.27;3.72;;;;;;;22.10;44.54;101021.00;4921921;29;20032;-83